createdAt,value
2019-05-22T00:01:40.314Z,13.63
2019-05-22T00:04:51.137Z,17.93
2019-05-22T00:07:55.881Z,15.33
2019-05-22T00:11:01.769Z,16.80
2019-05-22T00:14:07.239Z,17.77
2019-05-22T00:17:15.259Z,16.13
2019-05-22T00:20:22.377Z,15.10
2019-05-22T00:23:27.440Z,14.90
2019-05-22T00:26:31.511Z,12.80
2019-05-22T00:29:35.343Z,12.83
2019-05-22T00:32:39.802Z,11.50
2019-05-22T00:35:44.975Z,11.20
2019-05-22T00:38:51.257Z,10.20
2019-05-22T00:41:55.598Z,10.67
2019-05-22T00:44:59.977Z,10.43
2019-05-22T00:48:04.950Z,10.30
2019-05-22T00:51:28.918Z,10.23
2019-05-22T00:54:40.654Z,9.80
2019-05-22T00:57:50.505Z,10.97
2019-05-22T01:01:01.170Z,12.33
2019-05-22T01:04:06.194Z,11.13
2019-05-22T01:07:17.627Z,10.03
2019-05-22T01:10:25.808Z,13.77
2019-05-22T01:13:32.884Z,13.70
2019-05-22T01:16:37.179Z,11.87
2019-05-22T01:19:42.536Z,8.57
2019-05-22T01:22:48.617Z,10.10
2019-05-22T01:25:52.513Z,9.67
2019-05-22T01:28:56.816Z,10.17
2019-05-22T01:32:08.539Z,8.90
2019-05-22T01:35:13.781Z,10.17
2019-05-22T01:38:18.889Z,12.30
2019-05-22T01:41:30.283Z,10.10
2019-05-22T01:44:34.509Z,11.67
2019-05-22T01:48:05.470Z,13.93
2019-05-22T01:51:12.011Z,14.40
2019-05-22T01:54:18.177Z,14.60
2019-05-22T01:57:22.754Z,16.17
2019-05-22T02:00:28.514Z,16.27
2019-05-22T02:03:34.251Z,14.93
2019-05-22T02:06:39.134Z,14.20
2019-05-22T02:09:43.751Z,16.07
2019-05-22T02:12:54.841Z,15.60
2019-05-22T02:15:59.094Z,13.10
2019-05-22T02:19:05.079Z,15.70
2019-05-22T02:22:11.040Z,15.53
2019-05-22T02:25:15.600Z,14.90
2019-05-22T02:28:21.531Z,15.20
2019-05-22T02:31:28.696Z,17.73
2019-05-22T02:34:32.460Z,16.17
2019-05-22T02:37:36.977Z,15.37
2019-05-22T02:40:43.960Z,17.00
2019-05-22T02:43:48.110Z,15.73
2019-05-22T02:46:53.049Z,15.03
2019-05-22T02:49:58.163Z,20.03
2019-05-22T02:53:03.341Z,17.57
2019-05-22T02:56:07.229Z,14.23
2019-05-22T02:59:13.035Z,15.53
2019-05-22T03:02:18.094Z,18.43
2019-05-22T03:05:24.961Z,18.17
2019-05-22T03:08:46.136Z,15.53
2019-05-22T03:11:57.719Z,18.13
2019-05-22T03:15:04.067Z,14.83
2019-05-22T03:18:08.633Z,15.47
2019-05-22T03:21:13.695Z,15.00
2019-05-22T03:24:17.780Z,15.60
2019-05-22T03:27:38.653Z,15.20
2019-05-22T03:30:44.012Z,17.47
2019-05-22T03:33:48.301Z,16.23
2019-05-22T03:36:53.557Z,18.00
2019-05-22T03:39:57.294Z,16.77
2019-05-22T03:43:05.679Z,16.00
2019-05-22T03:46:44.005Z,21.20
2019-05-22T03:49:49.559Z,22.17
2019-05-22T03:52:55.105Z,17.03
2019-05-22T03:55:58.830Z,22.53
2019-05-22T03:59:03.600Z,18.63
2019-05-22T04:02:09.655Z,18.33
2019-05-22T04:05:14.796Z,16.83
2019-05-22T04:08:21.470Z,15.43
2019-05-22T04:11:28.730Z,16.27
2019-05-22T04:14:37.782Z,15.10
2019-05-22T04:17:44.990Z,16.77
2019-05-22T04:20:48.985Z,15.53
2019-05-22T04:23:52.878Z,15.70
2019-05-22T04:26:57.327Z,16.87
2019-05-22T04:30:01.522Z,14.47
2019-05-22T04:33:05.316Z,15.03
2019-05-22T04:36:10.454Z,16.00
2019-05-22T04:39:24.044Z,17.33
2019-05-22T04:42:29.218Z,13.87
2019-05-22T04:45:32.933Z,14.37
2019-05-22T04:48:37.867Z,18.87
2019-05-22T04:51:42.050Z,17.77
2019-05-22T04:54:45.752Z,13.67
2019-05-22T04:57:50.340Z,16.03
2019-05-22T05:00:55.119Z,19.17
2019-05-22T05:04:00.018Z,22.03
2019-05-22T05:07:07.267Z,16.43
2019-05-22T05:10:11.931Z,17.63
2019-05-22T05:13:16.424Z,18.87
2019-05-22T05:16:20.469Z,21.80
2019-05-22T05:19:24.637Z,17.43
2019-05-22T05:22:44.179Z,23.10
2019-05-22T05:25:48.040Z,19.40
2019-05-22T05:28:52.413Z,17.03
2019-05-22T05:31:56.848Z,20.73
2019-05-22T05:35:05.766Z,16.17
2019-05-22T05:38:10.899Z,15.60
2019-05-22T05:41:15.348Z,18.10
2019-05-22T05:44:19.359Z,20.13
2019-05-22T05:47:23.926Z,17.57
2019-05-22T05:50:39.062Z,19.07
2019-05-22T05:53:42.123Z,18.47
2019-05-22T05:56:48.379Z,16.00
2019-05-22T05:59:52.361Z,16.70
2019-05-22T06:03:01.205Z,15.00
2019-05-22T06:06:47.886Z,17.67
2019-05-22T06:10:39.464Z,16.90
2019-05-22T06:13:43.679Z,16.73
2019-05-22T06:17:28.879Z,15.30
2019-05-22T06:20:33.261Z,15.53
2019-05-22T06:24:15.308Z,15.27
2019-05-22T06:27:41.773Z,17.20
2019-05-22T06:30:47.558Z,13.97
2019-05-22T06:33:51.600Z,13.50
2019-05-22T06:36:58.783Z,13.60
2019-05-22T06:40:02.592Z,15.17
2019-05-22T06:44:01.271Z,15.47
2019-05-22T06:47:08.311Z,14.53
2019-05-22T06:50:12.426Z,15.03
2019-05-22T06:53:16.579Z,13.47
2019-05-22T06:56:23.772Z,14.83
2019-05-22T06:59:25.960Z,11.57
2019-05-22T07:02:35.483Z,12.70
2019-05-22T07:05:39.724Z,13.40
2019-05-22T07:08:43.719Z,12.27
2019-05-22T07:11:47.436Z,14.57
2019-05-22T07:15:31.164Z,13.00
2019-05-22T07:18:35.005Z,13.57
2019-05-22T07:21:39.551Z,13.07
2019-05-22T07:24:43.824Z,16.13
2019-05-22T07:27:48.710Z,17.67
2019-05-22T07:30:53.667Z,12.77
2019-05-22T07:33:58.099Z,13.93
2019-05-22T07:37:03.170Z,16.63
2019-05-22T07:40:07.846Z,13.70
2019-05-22T07:43:11.833Z,13.30
2019-05-22T07:46:15.610Z,15.67
2019-05-22T07:49:21.073Z,15.73
2019-05-22T07:52:25.376Z,15.77
2019-05-22T07:55:32.168Z,14.40
2019-05-22T07:58:36.211Z,13.50
2019-05-22T08:01:40.406Z,14.83
2019-05-22T08:04:45.765Z,14.27
2019-05-22T08:07:51.414Z,17.00
2019-05-22T08:10:57.136Z,14.40
2019-05-22T08:14:01.310Z,11.83
2019-05-22T08:17:08.404Z,12.37
2019-05-22T08:20:12.829Z,14.30
2019-05-22T08:23:17.713Z,14.07
2019-05-22T08:26:23.546Z,12.27
2019-05-22T08:29:27.871Z,12.23
2019-05-22T08:32:32.954Z,12.70
2019-05-22T08:35:37.143Z,14.93
2019-05-22T08:38:43.771Z,12.90
2019-05-22T08:41:47.740Z,13.40
2019-05-22T08:44:51.821Z,14.47
2019-05-22T08:47:56.236Z,12.13
2019-05-22T08:51:01.213Z,14.87
2019-05-22T08:54:06.570Z,12.50
2019-05-22T08:57:12.410Z,10.27
2019-05-22T09:00:18.116Z,9.40
2019-05-22T09:03:22.203Z,8.77
2019-05-22T09:06:26.181Z,8.43
2019-05-22T09:09:29.887Z,7.80
2019-05-22T09:12:34.330Z,7.40
2019-05-22T09:15:40.457Z,7.73
2019-05-22T09:18:44.375Z,7.23
2019-05-22T09:21:48.858Z,7.73
2019-05-22T09:24:53.038Z,6.77
2019-05-22T09:27:57.317Z,8.53
2019-05-22T09:31:01.116Z,7.27
2019-05-22T09:34:04.984Z,9.57
2019-05-22T09:37:08.762Z,10.13
2019-05-22T09:40:13.198Z,8.03
2019-05-22T09:43:17.416Z,7.93
2019-05-22T09:46:22.414Z,7.70
2019-05-22T09:49:26.593Z,9.10
2019-05-22T09:52:30.956Z,6.90
2019-05-22T09:55:35.837Z,8.03
2019-05-22T09:58:40.042Z,7.90
2019-05-22T10:01:43.957Z,7.80
2019-05-22T10:04:47.998Z,6.30
2019-05-22T10:08:00.736Z,6.43
2019-05-22T10:10:58.763Z,7.67
2019-05-22T10:14:03.088Z,5.80
2019-05-22T10:17:08.733Z,5.80
2019-05-22T10:20:13.846Z,6.30
2019-05-22T10:23:18.793Z,6.00
2019-05-22T10:26:23.058Z,4.63
2019-05-22T10:29:27.404Z,4.67
2019-05-22T10:32:32.568Z,5.13
2019-05-22T10:35:37.258Z,5.40
2019-05-22T10:38:41.232Z,5.90
2019-05-22T10:41:45.009Z,6.30
2019-05-22T10:44:49.957Z,5.50
2019-05-22T10:47:53.840Z,4.57
2019-05-22T10:50:57.542Z,4.40
2019-05-22T10:54:01.390Z,4.70
2019-05-22T10:57:05.722Z,5.33
2019-05-22T11:00:12.914Z,3.60
2019-05-22T11:03:17.936Z,4.27
2019-05-22T11:06:22.479Z,4.03
2019-05-22T11:09:27.317Z,4.70
2019-05-22T11:12:32.002Z,4.13
2019-05-22T11:15:35.803Z,4.13
2019-05-22T11:18:41.059Z,3.50
2019-05-22T11:21:45.496Z,4.47
2019-05-22T11:24:49.698Z,4.37
2019-05-22T11:27:54.542Z,3.87
2019-05-22T11:30:58.570Z,3.30
2019-05-22T11:34:02.371Z,3.80
2019-05-22T11:37:06.723Z,3.83
2019-05-22T11:40:12.356Z,4.00
2019-05-22T11:43:16.242Z,3.57
2019-05-22T11:46:20.360Z,3.30
2019-05-22T11:49:24.690Z,4.40
2019-05-22T11:52:29.853Z,3.60
2019-05-22T11:55:45.130Z,4.03
2019-05-22T11:58:39.423Z,3.00
2019-05-22T12:01:44.039Z,3.10
2019-05-22T12:04:49.018Z,3.37
2019-05-22T12:07:54.381Z,2.77
2019-05-22T12:10:59.041Z,2.80
2019-05-22T12:14:03.342Z,2.80
2019-05-22T12:17:07.691Z,3.00
2019-05-22T12:20:13.353Z,2.67
2019-05-22T12:23:17.366Z,2.70
2019-05-22T12:26:21.817Z,2.30
2019-05-22T12:29:25.795Z,2.40
2019-05-22T12:32:31.250Z,2.60
2019-05-22T12:35:35.100Z,2.07
2019-05-22T12:38:39.446Z,2.77
2019-05-22T12:41:45.766Z,2.60
2019-05-22T12:44:49.574Z,2.50
2019-05-22T12:47:54.164Z,2.00
2019-05-22T12:50:58.616Z,2.40
2019-05-22T12:54:03.002Z,2.37
2019-05-22T12:57:06.987Z,2.27
2019-05-22T13:00:11.085Z,2.30
2019-05-22T13:03:15.586Z,1.93
2019-05-22T13:06:20.215Z,2.23
2019-05-22T13:09:24.185Z,2.67
2019-05-22T13:12:28.042Z,1.90
2019-05-22T13:15:32.912Z,1.90
2019-05-22T13:18:37.249Z,2.03
2019-05-22T13:21:42.263Z,1.80
2019-05-22T13:24:46.515Z,2.20
2019-05-22T13:27:53.304Z,1.63
2019-05-22T13:30:58.152Z,2.30
2019-05-22T13:34:03.704Z,2.33
2019-05-22T13:37:10.051Z,2.10
2019-05-22T13:40:27.080Z,2.20
2019-05-22T13:43:20.577Z,2.10
2019-05-22T13:46:24.542Z,2.30
2019-05-22T13:49:30.430Z,2.53
2019-05-22T13:52:35.288Z,2.30
2019-05-22T13:55:40.096Z,2.23
2019-05-22T13:58:44.455Z,2.03
2019-05-22T14:01:48.239Z,2.70
2019-05-22T14:04:52.125Z,2.03
2019-05-22T14:07:55.832Z,2.07
2019-05-22T14:11:00.217Z,2.03
2019-05-22T14:14:04.352Z,1.87
2019-05-22T14:17:08.307Z,2.03
2019-05-22T14:20:15.880Z,2.30
2019-05-22T14:23:20.232Z,1.50
2019-05-22T14:26:24.552Z,1.90
2019-05-22T14:29:28.800Z,1.67
2019-05-22T14:32:32.985Z,1.90
2019-05-22T14:35:48.266Z,1.67
2019-05-22T14:38:46.392Z,1.73
2019-05-22T14:41:50.216Z,1.70
2019-05-22T14:44:54.290Z,2.00
2019-05-22T14:47:58.340Z,2.00
2019-05-22T14:51:02.206Z,1.90
2019-05-22T14:54:07.985Z,2.07
2019-05-22T14:57:12.211Z,1.90
2019-05-22T15:00:17.698Z,1.73
2019-05-22T15:03:21.473Z,11.73
2019-05-22T15:06:26.005Z,1.60
2019-05-22T15:09:30.024Z,14.93
2019-05-22T15:12:34.041Z,1.70
2019-05-22T15:15:40.642Z,2.30
2019-05-22T15:18:43.875Z,3.97
2019-05-22T15:21:48.066Z,2.07
2019-05-22T15:24:53.538Z,2.57
2019-05-22T15:27:57.809Z,2.30
2019-05-22T15:31:03.428Z,1.97
2019-05-22T15:34:08.240Z,2.90
2019-05-22T15:37:13.553Z,2.30
2019-05-22T15:40:19.191Z,1.93
2019-05-22T15:43:24.729Z,2.50
2019-05-22T15:46:29.056Z,2.30
2019-05-22T15:49:34.060Z,2.40
2019-05-22T15:52:39.812Z,2.60
2019-05-22T15:55:45.941Z,2.10
2019-05-22T15:58:53.938Z,2.20
2019-05-22T16:01:59.409Z,2.20
2019-05-22T16:05:05.759Z,2.17
2019-05-22T16:08:10.769Z,2.00
2019-05-22T16:11:16.858Z,2.13
2019-05-22T16:14:21.889Z,2.10
2019-05-22T16:17:28.778Z,2.30
2019-05-22T16:20:33.517Z,2.20
2019-05-22T16:23:38.325Z,2.10
2019-05-22T16:26:42.660Z,1.93
2019-05-22T16:29:46.764Z,1.90
2019-05-22T16:32:50.966Z,2.20
2019-05-22T16:35:55.174Z,2.17
2019-05-22T16:38:59.618Z,2.10
2019-05-22T16:42:04.279Z,2.00
2019-05-22T16:45:09.280Z,1.87
2019-05-22T16:48:28.383Z,2.00
2019-05-22T16:51:21.538Z,2.23
2019-05-22T16:54:26.552Z,2.23
2019-05-22T16:57:31.392Z,2.37
2019-05-22T17:00:36.269Z,2.37
2019-05-22T17:03:40.303Z,2.00
2019-05-22T17:06:44.346Z,2.03
2019-05-22T17:09:49.492Z,3.43
2019-05-22T17:12:54.744Z,2.27
2019-05-22T17:15:59.752Z,2.37
2019-05-22T17:19:23.816Z,2.27
2019-05-22T17:22:11.355Z,2.80
2019-05-22T17:25:16.952Z,2.73
2019-05-22T17:28:20.925Z,2.50
2019-05-22T17:31:26.801Z,1.90
2019-05-22T17:34:37.127Z,2.10
2019-05-22T17:37:42.107Z,2.00
2019-05-22T17:40:47.011Z,2.13
2019-05-22T17:43:50.995Z,1.97
2019-05-22T17:46:55.873Z,2.00
2019-05-22T17:50:01.508Z,2.00
2019-05-22T17:53:05.994Z,1.90
2019-05-22T17:56:10.046Z,2.00
2019-05-22T17:59:14.581Z,1.90
2019-05-22T18:02:20.869Z,1.70
2019-05-22T18:05:27.091Z,2.40
2019-05-22T18:08:31.068Z,1.73
2019-05-22T18:11:34.768Z,2.70
2019-05-22T18:14:38.837Z,1.80
2019-05-22T18:17:42.577Z,2.27
2019-05-22T18:20:46.860Z,1.73
2019-05-22T18:23:50.930Z,1.97
2019-05-22T18:26:54.700Z,2.17
2019-05-22T18:29:58.759Z,1.90
2019-05-22T18:33:02.828Z,1.90
2019-05-22T18:36:06.634Z,2.07
2019-05-22T18:39:12.080Z,2.00
2019-05-22T18:42:15.832Z,1.90
2019-05-22T18:45:21.358Z,2.10
2019-05-22T18:48:25.288Z,1.93
2019-05-22T18:51:29.760Z,2.10
2019-05-22T18:54:33.547Z,1.97
2019-05-22T18:57:37.637Z,1.67
2019-05-22T19:00:41.654Z,1.50
2019-05-22T19:03:45.430Z,1.90
2019-05-22T19:06:49.484Z,2.00
2019-05-22T19:09:53.216Z,2.20
2019-05-22T19:12:57.733Z,1.90
2019-05-22T19:16:01.449Z,1.83
2019-05-22T19:19:05.627Z,1.80
2019-05-22T19:22:09.450Z,1.90
2019-05-22T19:25:13.702Z,1.90
2019-05-22T19:28:17.635Z,1.70
2019-05-22T19:31:21.526Z,1.80
2019-05-22T19:34:25.226Z,2.20
2019-05-22T19:37:29.576Z,1.80
2019-05-22T19:40:33.796Z,1.70
2019-05-22T19:43:37.663Z,1.80
2019-05-22T19:46:41.479Z,2.20
2019-05-22T19:49:45.345Z,1.80
2019-05-22T19:52:49.243Z,2.00
2019-05-22T19:55:53.726Z,2.00
2019-05-22T19:58:58.559Z,1.90
2019-05-22T20:02:04.074Z,1.90
2019-05-22T20:05:09.100Z,2.30
2019-05-22T20:08:13.124Z,1.80
2019-05-22T20:11:16.900Z,2.63
2019-05-22T20:14:20.975Z,1.87
2019-05-22T20:17:24.678Z,2.17
2019-05-22T20:20:29.090Z,2.07
2019-05-22T20:23:36.472Z,2.57
2019-05-22T20:26:39.064Z,1.97
2019-05-22T20:29:43.308Z,2.50
2019-05-22T20:32:47.588Z,2.53
2019-05-22T20:35:51.296Z,2.40
2019-05-22T20:38:55.001Z,2.10
2019-05-22T20:41:59.208Z,2.10
2019-05-22T20:45:03.491Z,2.17
2019-05-22T20:48:12.170Z,2.50
2019-05-22T20:51:16.879Z,2.23
2019-05-22T20:54:21.152Z,2.70
2019-05-22T20:57:26.556Z,1.93
2019-05-22T21:00:31.827Z,2.30
2019-05-22T21:03:36.752Z,2.80
2019-05-22T21:06:48.556Z,2.77
2019-05-22T21:09:52.845Z,2.53
2019-05-22T21:12:57.555Z,2.63
2019-05-22T21:16:03.087Z,2.80
2019-05-22T21:19:07.954Z,2.13
2019-05-22T21:22:14.319Z,2.40
2019-05-22T21:25:18.322Z,3.13
2019-05-22T21:28:22.572Z,2.67
2019-05-22T21:31:27.092Z,3.37
2019-05-22T21:34:31.352Z,2.57
2019-05-22T21:37:35.324Z,2.40
2019-05-22T21:40:39.752Z,2.63
2019-05-22T21:43:44.099Z,2.70
2019-05-22T21:46:48.104Z,2.87
2019-05-22T21:49:52.369Z,3.50
2019-05-22T21:52:56.526Z,2.60
2019-05-22T21:56:05.114Z,2.73
2019-05-22T21:59:07.169Z,3.00
2019-05-22T22:02:15.870Z,3.07
2019-05-22T22:05:20.808Z,2.90
2019-05-22T22:08:25.143Z,2.80
2019-05-22T22:11:29.544Z,2.63
2019-05-22T22:14:33.667Z,4.03
2019-05-22T22:17:37.306Z,3.27
2019-05-22T22:20:41.745Z,3.30
2019-05-22T22:23:47.076Z,3.60
2019-05-22T22:26:51.442Z,3.23
2019-05-22T22:29:55.659Z,2.73
2019-05-22T22:33:02.106Z,3.30
2019-05-22T22:36:08.406Z,3.70
2019-05-22T22:39:14.766Z,2.93
2019-05-22T22:42:22.109Z,3.20
2019-05-22T22:45:37.052Z,3.83
2019-05-22T22:48:41.936Z,3.27
2019-05-22T22:51:48.943Z,2.80
2019-05-22T22:54:52.646Z,3.23
2019-05-22T22:57:56.712Z,3.57
2019-05-22T23:01:03.204Z,4.07
2019-05-22T23:04:10.133Z,3.63
2019-05-22T23:07:17.270Z,3.20
2019-05-22T23:10:23.053Z,4.30
2019-05-22T23:13:27.862Z,3.67
2019-05-22T23:16:32.510Z,3.57
2019-05-22T23:19:35.832Z,4.20
2019-05-22T23:22:40.120Z,3.93
2019-05-22T23:25:44.135Z,3.70
2019-05-22T23:28:47.927Z,3.30
2019-05-22T23:31:53.693Z,4.13
2019-05-22T23:34:59.414Z,4.80
2019-05-22T23:38:03.982Z,4.70
2019-05-22T23:41:08.202Z,4.43
2019-05-22T23:44:14.383Z,5.13
2019-05-22T23:47:18.949Z,4.10
2019-05-22T23:50:23.201Z,4.63
2019-05-22T23:53:28.266Z,4.90
2019-05-22T23:56:33.607Z,4.20
2019-05-22T23:59:39.823Z,4.60
